Terminal Aerodrome Forecast
Issued by NWS Pocatello, ID

Home | Current Version | Previous Version | Text Only | Print | Product List | Glossary On
Versions: 1 2 3 4 5 6 7 8 9 10 11 12 13 14
000
FTUS45 KPIH 080156 AAA
TAFIDA
TAF AMD
KIDA 080156Z 0802/0824 31015G25KT P6SM -SHRA VCTS SCT080CB BKN180
      TEMPO 0802/0803 -TSRA BKN070CB
     FM080300 02010KT P6SM VCSH BKN100 OVC140
     FM081200 05010KT P6SM -SHRA SCT040 BKN100 OVC140
     FM081900 VRB06KT P6SM VCTS SCT080CB BKN150=

USA.gov is the U.S. government's official web portal to all federal, state and local government web resources and services.